RYR6GG LFRS-EGCC
Flight info
| Callsign | RYR6GG |
|---|---|
| Flight time | N/A |
| Altitude | 32000 |
| Route | BALNI DCT RINSO UM184 EKRAS UN867 AVANT UM184 HEMEL T420 ELVOS |
| Aircraft | B738/M-SDE2E3FGHIRWXY/LB1 |
Departure
| Time | 2026-05-07 18:43 |
|---|---|
| Airport | Nantes Atlantique Airport (LFRS) |
Arrival
| Time | N/A |
|---|---|
| Airport | Manchester Airport (EGCC) |
| Time | Latitude | Longitude | Altitude | Speed | Heading |
|---|---|---|---|---|---|
| 2026-05-07 18:20 | 47.15609 | -1.60046 | 86 ft | 0 kts | 44° |
| 2026-05-07 18:32 | 47.15600 | -1.60058 | 88 ft | 4 kts | 44° |
| 2026-05-07 18:33 | 47.15581 | -1.60086 | 86 ft | 4 kts | 44° |
| 2026-05-07 18:33 | 47.15566 | -1.60109 | 88 ft | 4 kts | 60° |
| 2026-05-07 18:33 | 47.15562 | -1.60142 | 88 ft | 4 kts | 118° |
| 2026-05-07 18:33 | 47.15576 | -1.60173 | 89 ft | 2 kts | 117° |
| 2026-05-07 18:34 | 47.15584 | -1.60203 | 91 ft | 4 kts | 96° |
| 2026-05-07 18:34 | 47.15582 | -1.60241 | 93 ft | 4 kts | 66° |
| 2026-05-07 18:34 | 47.15571 | -1.60272 | 95 ft | 4 kts | 41° |
| 2026-05-07 18:34 | 47.15552 | -1.60288 | 94 ft | 4 kts | 25° |
| 2026-05-07 18:35 | 47.15537 | -1.60300 | 94 ft | 1 kts | 27° |
| 2026-05-07 18:37 | 47.15549 | -1.60292 | 92 ft | 6 kts | 27° |
| 2026-05-07 18:37 | 47.15620 | -1.60295 | 89 ft | 17 kts | 324° |
| 2026-05-07 18:38 | 47.15715 | -1.60428 | 85 ft | 16 kts | 297° |
| 2026-05-07 18:38 | 47.15659 | -1.60545 | 86 ft | 16 kts | 206° |
| 2026-05-07 18:38 | 47.15546 | -1.60631 | 90 ft | 24 kts | 208° |
| 2026-05-07 18:38 | 47.15385 | -1.60755 | 91 ft | 26 kts | 207° |
| 2026-05-07 18:39 | 47.15228 | -1.60874 | 90 ft | 24 kts | 207° |
| 2026-05-07 18:39 | 47.15082 | -1.60985 | 89 ft | 23 kts | 207° |
| 2026-05-07 18:39 | 47.14944 | -1.61093 | 90 ft | 22 kts | 208° |
| 2026-05-07 18:39 | 47.14807 | -1.61193 | 89 ft | 22 kts | 207° |
| 2026-05-07 18:40 | 47.14676 | -1.61295 | 90 ft | 21 kts | 208° |
| 2026-05-07 18:40 | 47.14537 | -1.61401 | 89 ft | 24 kts | 207° |
| 2026-05-07 18:40 | 47.14379 | -1.61521 | 85 ft | 27 kts | 208° |
| 2026-05-07 18:40 | 47.14225 | -1.61638 | 86 ft | 18 kts | 207° |
| 2026-05-07 18:41 | 47.14153 | -1.61770 | 85 ft | 17 kts | 249° |
| 2026-05-07 18:41 | 47.14171 | -1.61915 | 85 ft | 16 kts | 334° |
| 2026-05-07 18:41 | 47.14254 | -1.61882 | 85 ft | 12 kts | 28° |
| 2026-05-07 18:41 | 47.14297 | -1.61849 | 86 ft | 0 kts | 28° |
| 2026-05-07 18:43 | 47.14368 | -1.61795 | 86 ft | 42 kts | 27° |
| 2026-05-07 18:43 | 47.14855 | -1.61425 | 91 ft | 116 kts | 27° |
| 2026-05-07 18:43 | 47.15754 | -1.60729 | 180 ft | 167 kts | 26° |
| 2026-05-07 18:43 | 47.16776 | -1.59911 | 960 ft | 170 kts | 27° |
| 2026-05-07 18:44 | 47.17926 | -1.59463 | 1793 ft | 174 kts | 354° |
| 2026-05-07 18:44 | 47.19051 | -1.60307 | 2313 ft | 202 kts | 309° |
| 2026-05-07 18:44 | 47.19960 | -1.62055 | 2573 ft | 231 kts | 321° |
| 2026-05-07 18:44 | 47.21496 | -1.62814 | 2986 ft | 243 kts | 2° |
| 2026-05-07 18:45 | 47.23264 | -1.62677 | 3357 ft | 264 kts | 2° |
| 2026-05-07 18:45 | 47.25110 | -1.62697 | 4110 ft | 272 kts | 359° |
| 2026-05-07 18:45 | 47.27004 | -1.62820 | 5112 ft | 273 kts | 358° |
| 2026-05-07 18:45 | 47.28914 | -1.62986 | 6043 ft | 276 kts | 356° |
| 2026-05-07 18:46 | 47.30846 | -1.63224 | 6906 ft | 281 kts | 355° |
| 2026-05-07 18:46 | 47.32803 | -1.63488 | 7592 ft | 285 kts | 354° |
| 2026-05-07 18:46 | 47.34789 | -1.63760 | 8050 ft | 288 kts | 354° |
| 2026-05-07 18:46 | 47.36790 | -1.64034 | 8886 ft | 290 kts | 354° |
| 2026-05-07 18:47 | 47.38809 | -1.64308 | 9820 ft | 292 kts | 354° |
| 2026-05-07 18:47 | 47.40835 | -1.64582 | 10445 ft | 304 kts | 353° |
| 2026-05-07 18:47 | 47.43031 | -1.64880 | 10653 ft | 329 kts | 353° |
| 2026-05-07 18:47 | 47.45360 | -1.65194 | 11175 ft | 342 kts | 353° |
| 2026-05-07 18:48 | 47.47749 | -1.65514 | 11942 ft | 346 kts | 353° |
| 2026-05-07 18:48 | 47.50155 | -1.65835 | 12767 ft | 349 kts | 353° |
| 2026-05-07 18:48 | 47.52594 | -1.66162 | 13563 ft | 354 kts | 353° |
| 2026-05-07 18:48 | 47.55062 | -1.66493 | 14270 ft | 358 kts | 353° |
| 2026-05-07 18:49 | 47.57563 | -1.66830 | 14950 ft | 363 kts | 353° |
| 2026-05-07 18:49 | 47.60052 | -1.67164 | 15637 ft | 366 kts | 354° |
| 2026-05-07 18:49 | 47.62612 | -1.66990 | 16273 ft | 374 kts | 14° |
| 2026-05-07 18:49 | 47.65074 | -1.65693 | 16971 ft | 377 kts | 21° |
| 2026-05-07 18:50 | 47.67527 | -1.64237 | 17634 ft | 382 kts | 22° |
| 2026-05-07 18:50 | 47.70008 | -1.62748 | 18272 ft | 387 kts | 22° |
| 2026-05-07 18:50 | 47.72524 | -1.61248 | 18856 ft | 391 kts | 21° |
| 2026-05-07 18:50 | 47.75055 | -1.59753 | 19463 ft | 394 kts | 21° |
| 2026-05-07 18:51 | 47.77618 | -1.58251 | 20054 ft | 397 kts | 21° |
| 2026-05-07 18:51 | 47.80203 | -1.56743 | 20635 ft | 401 kts | 21° |
| 2026-05-07 18:51 | 47.82778 | -1.55245 | 21193 ft | 405 kts | 21° |
| 2026-05-07 18:51 | 47.85411 | -1.53711 | 21769 ft | 408 kts | 21° |
| 2026-05-07 18:52 | 47.88066 | -1.52164 | 22340 ft | 411 kts | 21° |
| 2026-05-07 18:52 | 47.90740 | -1.50604 | 22891 ft | 415 kts | 21° |
| 2026-05-07 18:52 | 47.93440 | -1.49027 | 23433 ft | 418 kts | 21° |
| 2026-05-07 18:52 | 47.96153 | -1.47439 | 23897 ft | 421 kts | 21° |
| 2026-05-07 18:53 | 47.98893 | -1.45835 | 24359 ft | 424 kts | 21° |
| 2026-05-07 18:53 | 48.01688 | -1.44442 | 24811 ft | 425 kts | 12° |
| 2026-05-07 18:53 | 48.04613 | -1.43744 | 25259 ft | 427 kts | 2° |
| 2026-05-07 18:53 | 48.07547 | -1.43755 | 25688 ft | 428 kts | 356° |
| 2026-05-07 18:54 | 48.10527 | -1.43985 | 26110 ft | 430 kts | 355° |
| 2026-05-07 18:54 | 48.13528 | -1.44251 | 26512 ft | 433 kts | 355° |
| 2026-05-07 18:54 | 48.16548 | -1.44517 | 26921 ft | 436 kts | 355° |
| 2026-05-07 18:54 | 48.19587 | -1.44771 | 27327 ft | 439 kts | 355° |
| 2026-05-07 18:55 | 48.22635 | -1.45011 | 27802 ft | 439 kts | 355° |
| 2026-05-07 18:55 | 48.25681 | -1.45238 | 28397 ft | 436 kts | 355° |
| 2026-05-07 18:55 | 48.28703 | -1.45457 | 28998 ft | 434 kts | 355° |
| 2026-05-07 18:55 | 48.31717 | -1.45673 | 29523 ft | 433 kts | 355° |
| 2026-05-07 18:56 | 48.34695 | -1.45887 | 29998 ft | 434 kts | 355° |
| 2026-05-07 18:56 | 48.37702 | -1.46102 | 30426 ft | 433 kts | 355° |
| 2026-05-07 18:56 | 48.40710 | -1.46318 | 30853 ft | 432 kts | 355° |
| 2026-05-07 18:56 | 48.43711 | -1.46534 | 31267 ft | 432 kts | 355° |
| 2026-05-07 18:57 | 48.46702 | -1.46750 | 31729 ft | 429 kts | 355° |
| 2026-05-07 18:57 | 48.49690 | -1.46966 | 32004 ft | 432 kts | 355° |
| 2026-05-07 18:57 | 48.52715 | -1.47186 | 31992 ft | 437 kts | 355° |
| 2026-05-07 18:58 | 48.58707 | -1.47620 | 31991 ft | 430 kts | 355° |
| 2026-05-07 18:58 | 48.64662 | -1.48052 | 32017 ft | 429 kts | 355° |
| 2026-05-07 18:59 | 48.70632 | -1.48488 | 32011 ft | 431 kts | 355° |
| 2026-05-07 18:59 | 48.76627 | -1.48927 | 32007 ft | 432 kts | 355° |
| 2026-05-07 19:00 | 48.82635 | -1.49367 | 32003 ft | 432 kts | 355° |
| 2026-05-07 19:00 | 48.88598 | -1.49804 | 32007 ft | 431 kts | 355° |
| 2026-05-07 19:01 | 48.94587 | -1.49580 | 32020 ft | 431 kts | 2° |
| 2026-05-07 19:01 | 49.00570 | -1.48772 | 32007 ft | 430 kts | 3° |
| 2026-05-07 19:02 | 49.06522 | -1.47978 | 32009 ft | 429 kts | 2° |
| 2026-05-07 19:02 | 49.12429 | -1.47253 | 32014 ft | 428 kts | 2° |
| 2026-05-07 19:03 | 49.18360 | -1.46552 | 32014 ft | 427 kts | 2° |
| 2026-05-07 19:03 | 49.24290 | -1.45853 | 32012 ft | 427 kts | 2° |
| 2026-05-07 19:04 | 49.30217 | -1.45151 | 32019 ft | 427 kts | 2° |
| 2026-05-07 19:04 | 49.36151 | -1.44446 | 32022 ft | 428 kts | 2° |
| 2026-05-07 19:05 | 49.42092 | -1.43738 | 32023 ft | 429 kts | 2° |
| 2026-05-07 19:05 | 49.47999 | -1.43032 | 32021 ft | 429 kts | 2° |
| 2026-05-07 19:06 | 49.53959 | -1.42318 | 32030 ft | 430 kts | 2° |
| 2026-05-07 19:06 | 49.62911 | -1.41308 | 32023 ft | 430 kts | 1° |
| 2026-05-07 19:07 | 49.68880 | -1.40794 | 32019 ft | 429 kts | 1° |
| 2026-05-07 19:07 | 49.74842 | -1.40279 | 32029 ft | 429 kts | 1° |
| 2026-05-07 19:08 | 49.80807 | -1.39746 | 32021 ft | 429 kts | 1° |
| 2026-05-07 19:08 | 49.86757 | -1.39206 | 32026 ft | 429 kts | 1° |
| 2026-05-07 19:09 | 49.92675 | -1.38668 | 32031 ft | 429 kts | 1° |
| 2026-05-07 19:09 | 49.98635 | -1.38125 | 32037 ft | 429 kts | 1° |
| 2026-05-07 19:10 | 50.04576 | -1.37096 | 32039 ft | 430 kts | 7° |
| 2026-05-07 19:10 | 50.10484 | -1.35529 | 32036 ft | 430 kts | 8° |
| 2026-05-07 19:11 | 50.16386 | -1.33977 | 32036 ft | 430 kts | 8° |
| 2026-05-07 19:11 | 50.22283 | -1.32492 | 32039 ft | 429 kts | 7° |
| 2026-05-07 19:12 | 50.28144 | -1.31037 | 32028 ft | 429 kts | 7° |
| 2026-05-07 19:12 | 50.34031 | -1.29573 | 32034 ft | 428 kts | 7° |
| 2026-05-07 19:13 | 50.39913 | -1.28104 | 32039 ft | 428 kts | 7° |
| 2026-05-07 19:13 | 50.45790 | -1.26633 | 32044 ft | 428 kts | 7° |
| 2026-05-07 19:14 | 50.51526 | -1.24189 | 32050 ft | 430 kts | 23° |
| 2026-05-07 19:14 | 50.56665 | -1.19383 | 32050 ft | 431 kts | 32° |
| 2026-05-07 19:15 | 50.61653 | -1.14269 | 32042 ft | 431 kts | 32° |
| 2026-05-07 19:15 | 50.66704 | -1.09162 | 32053 ft | 431 kts | 31° |
| 2026-05-07 19:16 | 50.71770 | -1.04085 | 32053 ft | 432 kts | 31° |
| 2026-05-07 19:16 | 50.76840 | -0.98999 | 32054 ft | 432 kts | 31° |
| 2026-05-07 19:17 | 50.81944 | -0.94013 | 32045 ft | 431 kts | 26° |
| 2026-05-07 19:17 | 50.87530 | -0.90757 | 32058 ft | 428 kts | 15° |
| 2026-05-07 19:18 | 50.93210 | -0.87931 | 32055 ft | 428 kts | 15° |
| 2026-05-07 19:18 | 50.98878 | -0.85066 | 32052 ft | 428 kts | 16° |
| 2026-05-07 19:19 | 51.04497 | -0.82169 | 32052 ft | 427 kts | 16° |
| 2026-05-07 19:19 | 51.10128 | -0.79239 | 32051 ft | 427 kts | 16° |
| 2026-05-07 19:20 | 51.15773 | -0.76291 | 32047 ft | 427 kts | 16° |
| 2026-05-07 19:20 | 51.21418 | -0.73336 | 32049 ft | 427 kts | 16° |
| 2026-05-07 19:21 | 51.27062 | -0.70375 | 32048 ft | 427 kts | 16° |
| 2026-05-07 19:21 | 51.32704 | -0.67408 | 32049 ft | 427 kts | 16° |
| 2026-05-07 19:22 | 51.38343 | -0.64434 | 32054 ft | 427 kts | 16° |
| 2026-05-07 19:22 | 51.43943 | -0.61474 | 32048 ft | 426 kts | 16° |
| 2026-05-07 19:23 | 51.49577 | -0.58487 | 32045 ft | 426 kts | 16° |
| 2026-05-07 19:23 | 51.55202 | -0.55498 | 32049 ft | 426 kts | 16° |
| 2026-05-07 19:24 | 51.60823 | -0.52502 | 32056 ft | 425 kts | 16° |
| 2026-05-07 19:24 | 51.66439 | -0.49502 | 32049 ft | 425 kts | 16° |
| 2026-05-07 19:25 | 51.72047 | -0.46498 | 32072 ft | 425 kts | 16° |
| 2026-05-07 19:25 | 51.77670 | -0.43579 | 32038 ft | 423 kts | 8° |
| 2026-05-07 19:26 | 51.80563 | -0.43345 | 32058 ft | 414 kts | 349° |
| 2026-05-07 19:26 | 51.83287 | -0.44467 | 32049 ft | 407 kts | 332° |
| 2026-05-07 19:26 | 51.88092 | -0.49104 | 32051 ft | 403 kts | 324° |
| 2026-05-07 19:27 | 51.92863 | -0.53895 | 32046 ft | 404 kts | 325° |
| 2026-05-07 19:27 | 51.97630 | -0.58551 | 32030 ft | 391 kts | 325° |
| 2026-05-07 19:28 | 52.02210 | -0.63008 | 32021 ft | 372 kts | 325° |
| 2026-05-07 19:28 | 52.04392 | -0.65138 | 32032 ft | 359 kts | 325° |
| 2026-05-07 19:28 | 52.06494 | -0.67197 | 32024 ft | 347 kts | 325° |
| 2026-05-07 19:29 | 52.08531 | -0.69196 | 31593 ft | 344 kts | 325° |
| 2026-05-07 19:29 | 52.10626 | -0.71261 | 30381 ft | 362 kts | 325° |
| 2026-05-07 19:29 | 52.12809 | -0.73412 | 29732 ft | 365 kts | 325° |
| 2026-05-07 19:29 | 52.14908 | -0.75479 | 29323 ft | 362 kts | 325° |
| 2026-05-07 19:30 | 52.17020 | -0.77569 | 29028 ft | 357 kts | 325° |
| 2026-05-07 19:30 | 52.19138 | -0.79669 | 28667 ft | 354 kts | 325° |
| 2026-05-07 19:30 | 52.21228 | -0.81743 | 28297 ft | 351 kts | 325° |
| 2026-05-07 19:30 | 52.23306 | -0.83808 | 27962 ft | 348 kts | 325° |
| 2026-05-07 19:31 | 52.25366 | -0.85856 | 27605 ft | 345 kts | 325° |
| 2026-05-07 19:31 | 52.27403 | -0.87875 | 27247 ft | 343 kts | 325° |
| 2026-05-07 19:31 | 52.29441 | -0.89894 | 26908 ft | 341 kts | 325° |
| 2026-05-07 19:31 | 52.31461 | -0.91897 | 26568 ft | 339 kts | 325° |
| 2026-05-07 19:32 | 52.33469 | -0.93892 | 26234 ft | 337 kts | 325° |
| 2026-05-07 19:32 | 52.35461 | -0.95872 | 25908 ft | 334 kts | 325° |
| 2026-05-07 19:32 | 52.37441 | -0.97844 | 25574 ft | 332 kts | 325° |
| 2026-05-07 19:32 | 52.39385 | -0.99782 | 25267 ft | 331 kts | 325° |
| 2026-05-07 19:33 | 52.41346 | -1.01740 | 24942 ft | 331 kts | 325° |
| 2026-05-07 19:33 | 52.43314 | -1.03706 | 24597 ft | 331 kts | 325° |
| 2026-05-07 19:33 | 52.45294 | -1.05687 | 24274 ft | 337 kts | 325° |
| 2026-05-07 19:33 | 52.47322 | -1.07720 | 23933 ft | 345 kts | 325° |
| 2026-05-07 19:34 | 52.49373 | -1.09777 | 23559 ft | 346 kts | 325° |
| 2026-05-07 19:34 | 52.51418 | -1.11843 | 23149 ft | 344 kts | 325° |
| 2026-05-07 19:34 | 52.53443 | -1.13899 | 22773 ft | 341 kts | 325° |
| 2026-05-07 19:34 | 52.55459 | -1.15945 | 22416 ft | 339 kts | 325° |
| 2026-05-07 19:35 | 52.56782 | -1.17289 | 22190 ft | 337 kts | 325° |
| 2026-05-07 19:35 | 52.58772 | -1.19302 | 21846 ft | 334 kts | 325° |
| 2026-05-07 19:35 | 52.61379 | -1.21941 | 21406 ft | 331 kts | 326° |
| 2026-05-07 19:35 | 52.63327 | -1.23915 | 21070 ft | 328 kts | 326° |
| 2026-05-07 19:36 | 52.65268 | -1.25884 | 20747 ft | 326 kts | 326° |
| 2026-05-07 19:36 | 52.67188 | -1.27835 | 20422 ft | 324 kts | 326° |
| 2026-05-07 19:36 | 52.68481 | -1.29149 | 20213 ft | 322 kts | 326° |
| 2026-05-07 19:36 | 52.70359 | -1.31060 | 19951 ft | 320 kts | 326° |
| 2026-05-07 19:37 | 52.72235 | -1.32967 | 19903 ft | 313 kts | 326° |
| 2026-05-07 19:37 | 52.74064 | -1.34825 | 19942 ft | 304 kts | 326° |
| 2026-05-07 19:37 | 52.75836 | -1.36626 | 19931 ft | 293 kts | 325° |
| 2026-05-07 19:37 | 52.77537 | -1.38357 | 19924 ft | 281 kts | 325° |
| 2026-05-07 19:38 | 52.79171 | -1.40022 | 19930 ft | 271 kts | 325° |
| 2026-05-07 19:38 | 52.80771 | -1.41657 | 19943 ft | 272 kts | 325° |
| 2026-05-07 19:38 | 52.82374 | -1.43301 | 19963 ft | 281 kts | 325° |
| 2026-05-07 19:38 | 52.84049 | -1.45019 | 19965 ft | 284 kts | 325° |
| 2026-05-07 19:39 | 52.85725 | -1.46735 | 19621 ft | 286 kts | 325° |
| 2026-05-07 19:39 | 52.87435 | -1.48492 | 18733 ft | 304 kts | 326° |
| 2026-05-07 19:39 | 52.89292 | -1.50402 | 17755 ft | 321 kts | 326° |
| 2026-05-07 19:39 | 52.91192 | -1.52352 | 17176 ft | 322 kts | 326° |
| 2026-05-07 19:40 | 52.93086 | -1.54294 | 16719 ft | 318 kts | 326° |
| 2026-05-07 19:40 | 52.94960 | -1.56220 | 16248 ft | 315 kts | 326° |
| 2026-05-07 19:40 | 52.96808 | -1.58122 | 15766 ft | 314 kts | 326° |
| 2026-05-07 19:40 | 52.98654 | -1.60025 | 15286 ft | 312 kts | 326° |
| 2026-05-07 19:41 | 53.00494 | -1.61925 | 14831 ft | 311 kts | 325° |
| 2026-05-07 19:41 | 53.02330 | -1.63821 | 14363 ft | 309 kts | 325° |
| 2026-05-07 19:41 | 53.04149 | -1.65702 | 13892 ft | 307 kts | 325° |
| 2026-05-07 19:41 | 53.05876 | -1.67731 | 13353 ft | 302 kts | 312° |
| 2026-05-07 19:42 | 53.07211 | -1.70297 | 12895 ft | 295 kts | 306° |
| 2026-05-07 19:42 | 53.08504 | -1.72914 | 12438 ft | 291 kts | 306° |
| 2026-05-07 19:42 | 53.09801 | -1.75479 | 11961 ft | 288 kts | 307° |
| 2026-05-07 19:42 | 53.11095 | -1.78010 | 11503 ft | 285 kts | 307° |
| 2026-05-07 19:43 | 53.12371 | -1.80496 | 11086 ft | 283 kts | 307° |
| 2026-05-07 19:43 | 53.13667 | -1.83019 | 10582 ft | 289 kts | 307° |
| 2026-05-07 19:43 | 53.14977 | -1.85568 | 10186 ft | 290 kts | 307° |
| 2026-05-07 19:43 | 53.16289 | -1.88123 | 9922 ft | 286 kts | 307° |
| 2026-05-07 19:44 | 53.17537 | -1.90549 | 9929 ft | 273 kts | 307° |
| 2026-05-07 19:44 | 53.18779 | -1.92971 | 9273 ft | 280 kts | 307° |
| 2026-05-07 19:44 | 53.20023 | -1.95401 | 8826 ft | 275 kts | 307° |
| 2026-05-07 19:44 | 53.21262 | -1.97820 | 8465 ft | 269 kts | 307° |
| 2026-05-07 19:45 | 53.22460 | -2.00163 | 8123 ft | 262 kts | 307° |
| 2026-05-07 19:45 | 53.23824 | -2.02126 | 7790 ft | 261 kts | 333° |
| 2026-05-07 19:45 | 53.25578 | -2.02768 | 7535 ft | 260 kts | 356° |
| 2026-05-07 19:45 | 53.27397 | -2.02671 | 7227 ft | 263 kts | 2° |
| 2026-05-07 19:46 | 53.29227 | -2.02414 | 6903 ft | 265 kts | 4° |
| 2026-05-07 19:46 | 53.31060 | -2.02139 | 6582 ft | 264 kts | 4° |
| 2026-05-07 19:46 | 53.32888 | -2.01876 | 6244 ft | 263 kts | 3° |
| 2026-05-07 19:46 | 53.34671 | -2.01631 | 5904 ft | 259 kts | 4° |
| 2026-05-07 19:47 | 53.36399 | -2.01218 | 5762 ft | 245 kts | 20° |
| 2026-05-07 19:47 | 53.37874 | -1.99980 | 5649 ft | 231 kts | 28° |
| 2026-05-07 19:47 | 53.39284 | -1.98734 | 5351 ft | 228 kts | 28° |
| 2026-05-07 19:47 | 53.40682 | -1.97511 | 5011 ft | 227 kts | 28° |
| 2026-05-07 19:48 | 53.42076 | -1.96302 | 4696 ft | 229 kts | 28° |
| 2026-05-07 19:48 | 53.43482 | -1.95102 | 4480 ft | 225 kts | 28° |
| 2026-05-07 19:48 | 53.44864 | -1.93927 | 4207 ft | 226 kts | 28° |
| 2026-05-07 19:48 | 53.46264 | -1.92744 | 4059 ft | 225 kts | 28° |
| 2026-05-07 19:49 | 53.47703 | -1.91746 | 4009 ft | 226 kts | 8° |
| 2026-05-07 19:49 | 53.49192 | -1.92240 | 4041 ft | 222 kts | 324° |
| 2026-05-07 19:49 | 53.50210 | -1.94114 | 4018 ft | 215 kts | 295° |
| 2026-05-07 19:49 | 53.50581 | -1.96456 | 3994 ft | 205 kts | 258° |
| 2026-05-07 19:50 | 53.49944 | -1.98479 | 4026 ft | 198 kts | 220° |
| 2026-05-07 19:50 | 53.48930 | -2.00088 | 4015 ft | 202 kts | 223° |
| 2026-05-07 19:50 | 53.47967 | -2.01782 | 3935 ft | 197 kts | 225° |
| 2026-05-07 19:50 | 53.47070 | -2.03505 | 3680 ft | 194 kts | 226° |
| 2026-05-07 19:51 | 53.46231 | -2.05199 | 3448 ft | 188 kts | 227° |
| 2026-05-07 19:51 | 53.45409 | -2.06879 | 3199 ft | 184 kts | 228° |
| 2026-05-07 19:51 | 53.44607 | -2.08525 | 2948 ft | 180 kts | 228° |
| 2026-05-07 19:51 | 53.43822 | -2.10136 | 2708 ft | 178 kts | 228° |
| 2026-05-07 19:52 | 53.43045 | -2.11732 | 2465 ft | 175 kts | 227° |
| 2026-05-07 19:52 | 53.42277 | -2.13309 | 2236 ft | 176 kts | 227° |
| 2026-05-07 19:52 | 53.41494 | -2.14915 | 1991 ft | 176 kts | 227° |
| 2026-05-07 19:52 | 53.40755 | -2.16436 | 1752 ft | 173 kts | 227° |
| 2026-05-07 19:53 | 53.39980 | -2.18027 | 1512 ft | 176 kts | 227° |
| 2026-05-07 19:53 | 53.39222 | -2.19584 | 1284 ft | 179 kts | 227° |
| 2026-05-07 19:53 | 53.38467 | -2.21138 | 1034 ft | 179 kts | 229° |
| 2026-05-07 19:53 | 53.37676 | -2.22765 | 795 ft | 180 kts | 229° |